Time;durP1;ratioP1;P1;durP2;ratioP2;P2;SDS_P1;SDS_P2;PMS_P1;PMS_P2;Temp;Humidity;BMP_temperature;BMP_pressure;BME280_temperature;BME280_humidity;BME280_pressure;Samples;Min_cycle;Max_cycle;Signal;HPM_P1;HPM_P2
2021/06/03 00:00:43;;;;;;;1;0.6;;;;;;;17.35;59.61133;941.6957;;;;
2021/06/03 00:03:08;;;;;;;1;0.6;;;;;;;17.26;59.86621;941.6967;;;;
2021/06/03 00:05:35;;;;;;;12.4;0.9;;;;;;;16.86;60.92285;941.7372;;;;
2021/06/03 00:08:03;;;;;;;0.5;0.4;;;;;;;16.6;61.10742;941.7039;;;;
2021/06/03 00:10:33;;;;;;;0.4;0.4;;;;;;;16.64;60.81152;941.6797;;;;
2021/06/03 00:12:59;;;;;;;0.6;0.5;;;;;;;16.69;60.91113;941.6234;;;;
2021/06/03 00:15:24;;;;;;;1.2;0.6;;;;;;;16.72;60.89258;941.6931;;;;
2021/06/03 00:17:51;;;;;;;0.4;0.3;;;;;;;16.75;61.18555;941.6855;;;;
2021/06/03 00:20:16;;;;;;;1;0.6;;;;;;;16.75;61.47461;941.7322;;;;
2021/06/03 00:22:41;;;;;;;0.7;0.5;;;;;;;16.62;61.6543;941.7129;;;;
2021/06/03 00:25:07;;;;;;;0.4;0.3;;;;;;;16.59;61.15234;941.7836;;;;
2021/06/03 00:27:32;;;;;;;0.3;0.3;;;;;;;16.34;61.11719;941.8052;;;;
2021/06/03 00:29:57;;;;;;;0.5;0.3;;;;;;;16.21;61.6543;941.7761;;;;
2021/06/03 00:32:24;;;;;;;0.6;0.4;;;;;;;16.17;61.90332;941.8631;;;;
2021/06/03 00:35:11;;;;;;;0.6;0.4;;;;;;;16.18;61.70898;941.843;;;;
2021/06/03 00:37:36;;;;;;;1.5;0.5;;;;;;;16.14;62.29199;941.8425;;;;
2021/06/03 00:40:01;;;;;;;0.5;0.4;;;;;;;16.09;62.12305;941.8967;;;;
2021/06/03 00:42:26;;;;;;;1.6;0.7;;;;;;;15.96;61.98926;941.8842;;;;
2021/06/03 00:44:51;;;;;;;5.9;0.9;;;;;;;15.88;61.9541;941.9377;;;;
2021/06/03 00:47:18;;;;;;;0.9;0.8;;;;;;;15.85;62.45898;941.9691;;;;
2021/06/03 00:49:43;;;;;;;0.6;0.5;;;;;;;15.69;63.54492;941.931;;;;
2021/06/03 00:52:18;;;;;;;0.5;0.5;;;;;;;15.77;63.53223;941.913;;;;
2021/06/03 00:54:43;;;;;;;1.8;0.6;;;;;;;15.84;63.32324;941.9844;;;;
2021/06/03 00:57:08;;;;;;;0.3;0.3;;;;;;;15.75;63.4502;941.954;;;;
2021/06/03 00:59:33;;;;;;;1;0.7;;;;;;;15.79;63.375;941.9932;;;;
2021/06/03 01:01:59;;;;;;;0.8;0.5;;;;;;;15.6;63.79785;942.0403;;;;
2021/06/03 01:04:24;;;;;;;0.5;0.4;;;;;;;15.36;64.89355;942.0525;;;;
2021/06/03 01:06:49;;;;;;;0.6;0.5;;;;;;;15.44;64.87109;942.0719;;;;
2021/06/03 01:09:14;;;;;;;0.8;0.6;;;;;;;15.49;64.44043;941.9753;;;;
2021/06/03 01:11:40;;;;;;;0.4;0.4;;;;;;;15.58;63.91113;942.0569;;;;
2021/06/03 01:14:05;;;;;;;0.7;0.6;;;;;;;15.61;63.44141;942.0708;;;;
2021/06/03 01:16:30;;;;;;;0.8;0.5;;;;;;;15.65;63.74805;942.0541;;;;
2021/06/03 01:18:55;;;;;;;0.9;0.7;;;;;;;15.65;63.55176;942.0748;;;;
2021/06/03 01:21:20;;;;;;;1.8;0.7;;;;;;;15.65;63.77148;942.1005;;;;
2021/06/03 01:23:45;;;;;;;1.3;0.9;;;;;;;15.65;63.73633;942.1054;;;;
2021/06/03 01:26:12;;;;;;;0.8;0.6;;;;;;;15.61;64.22559;942.1085;;;;
2021/06/03 01:28:37;;;;;;;1.2;0.7;;;;;;;15.61;63.69629;942.1365;;;;
2021/06/03 01:31:02;;;;;;;0.9;0.7;;;;;;;15.55;63.7793;942.114;;;;
2021/06/03 01:33:28;;;;;;;1.7;0.6;;;;;;;15.4;64.17285;942.1342;;;;
2021/06/03 01:35:54;;;;;;;1;0.8;;;;;;;15.4;64.60059;942.1575;;;;
2021/06/03 01:38:19;;;;;;;0.9;0.8;;;;;;;15.41;64.49707;942.1117;;;;
2021/06/03 01:40:44;;;;;;;0.7;0.6;;;;;;;15.33;65.14453;942.1786;;;;
2021/06/03 01:43:10;;;;;;;1.7;0.7;;;;;;;15.27;65.5166;942.1819;;;;
2021/06/03 01:45:36;;;;;;;1.4;0.9;;;;;;;15.25;65.24707;942.2197;;;;
2021/06/03 01:48:01;;;;;;;0.9;0.7;;;;;;;15.18;65.05176;942.2276;;;;
2021/06/03 01:50:26;;;;;;;0.8;0.7;;;;;;;15.14;65.28809;942.2084;;;;
2021/06/03 01:52:51;;;;;;;0.9;0.7;;;;;;;15.05;65.26367;942.2679;;;;
2021/06/03 01:55:17;;;;;;;1.1;0.7;;;;;;;14.91;65.78516;942.1675;;;;
2021/06/03 01:57:42;;;;;;;2.4;0.7;;;;;;;14.78;66.28516;942.2355;;;;
2021/06/03 02:00:10;;;;;;;1.4;0.8;;;;;;;14.76;66.62695;942.2644;;;;
2021/06/03 02:02:35;;;;;;;1.3;0.9;;;;;;;14.72;66.82715;942.2675;;;;
2021/06/03 02:05:00;;;;;;;1.5;1;;;;;;;14.73;66.68066;942.3084;;;;
2021/06/03 02:12:54;;;;;;;1.4;1.1;;;;;;;14.58;68.30469;942.3818;;;;
2021/06/03 02:15:19;;;;;;;1.7;1;;;;;;;14.56;68.50977;942.3635;;;;
2021/06/03 02:17:44;;;;;;;1;0.9;;;;;;;14.56;67.99121;942.3434;;;;
2021/06/03 02:20:09;;;;;;;4.5;1;;;;;;;14.5;68.17871;942.3698;;;;
2021/06/03 02:22:34;;;;;;;2.8;1.4;;;;;;;14.5;68.08594;942.3722;;;;
2021/06/03 02:25:00;;;;;;;1.9;1.1;;;;;;;14.46;67.74316;942.3914;;;;
2021/06/03 02:27:25;;;;;;;1;0.9;;;;;;;14.32;68.2998;942.4642;;;;
2021/06/03 02:29:50;;;;;;;4;1.1;;;;;;;14.23;68.51563;942.4056;;;;
2021/06/03 02:32:17;;;;;;;1.6;0.9;;;;;;;14.22;68.59473;942.4489;;;;
2021/06/03 02:34:42;;;;;;;2.9;1;;;;;;;14.21;68.59277;942.4966;;;;
2021/06/03 02:37:07;;;;;;;1.1;0.7;;;;;;;14.21;69.0166;942.5006;;;;
2021/06/03 02:39:34;;;;;;;2.1;1.2;;;;;;;14.16;69.33398;942.5221;;;;
2021/06/03 02:41:59;;;;;;;0.7;0.7;;;;;;;14.17;68.94336;942.5381;;;;
2021/06/03 02:44:24;;;;;;;1.4;1;;;;;;;14.17;68.74805;942.5405;;;;
2021/06/03 02:46:49;;;;;;;1.2;1.1;;;;;;;14.06;68.99414;942.5283;;;;
2021/06/03 02:49:15;;;;;;;1.5;1.2;;;;;;;14.07;68.97363;942.5323;;;;
2021/06/03 02:51:40;;;;;;;1.2;0.8;;;;;;;14.09;68.91895;942.4907;;;;
2021/06/03 02:54:07;;;;;;;1.1;0.9;;;;;;;14.08;68.84863;942.4955;;;;
2021/06/03 02:56:32;;;;;;;1.6;0.8;;;;;;;14.02;69.08008;942.589;;;;
2021/06/03 02:59:19;;;;;;;2;1.1;;;;;;;13.96;69.02441;942.5965;;;;
2021/06/03 03:01:45;;;;;;;3;1.1;;;;;;;13.88;69.47168;942.5442;;;;
2021/06/03 03:04:10;;;;;;;0.7;0.6;;;;;;;13.9;69.45313;942.6364;;;;
2021/06/03 03:06:35;;;;;;;0.7;0.7;;;;;;;13.79;69.75684;942.6244;;;;
2021/06/03 03:09:00;;;;;;;5.6;1;;;;;;;13.7;70.12305;942.6817;;;;
2021/06/03 03:11:25;;;;;;;1.9;0.9;;;;;;;13.69;70.21387;942.6264;;;;
2021/06/03 03:13:52;;;;;;;1.1;0.8;;;;;;;13.64;70.51563;942.6694;;;;
2021/06/03 03:16:17;;;;;;;1.6;1;;;;;;;13.54;70.77539;942.6918;;;;
2021/06/03 03:18:44;;;;;;;0.8;0.8;;;;;;;13.34;71.70703;942.7136;;;;
2021/06/03 03:21:09;;;;;;;2.4;1.2;;;;;;;13.38;71.54199;942.6842;;;;
2021/06/03 03:23:35;;;;;;;2.2;1.3;;;;;;;13.38;71.58789;942.753;;;;
2021/06/03 03:26:40;;;;;;;1.4;0.9;;;;;;;13.35;71.69824;942.7809;;;;
2021/06/03 03:29:07;;;;;;;1;0.7;;;;;;;13.48;71.69629;942.7747;;;;
2021/06/03 03:31:33;;;;;;;1.5;0.9;;;;;;;13.57;71.40039;942.7439;;;;
2021/06/03 03:34:02;;;;;;;1.1;0.9;;;;;;;13.61;70.71777;942.7417;;;;
2021/06/03 03:36:24;;;;;;;1.8;1;;;;;;;13.54;70.82129;942.7302;;;;
2021/06/03 03:38:51;;;;;;;6.5;1;;;;;;;13.52;70.96582;942.8181;;;;
2021/06/03 03:41:16;;;;;;;2.2;1;;;;;;;13.52;70.91016;942.6941;;;;
2021/06/03 03:43:41;;;;;;;1.4;0.9;;;;;;;13.54;70.9248;942.8198;;;;
2021/06/03 03:46:06;;;;;;;2.1;1;;;;;;;13.65;70.72363;942.8831;;;;
2021/06/03 03:48:32;;;;;;;1.8;1.1;;;;;;;13.73;70.38086;942.8795;;;;
2021/06/03 03:50:57;;;;;;;0.7;0.7;;;;;;;13.82;70.03809;942.8489;;;;
2021/06/03 03:53:24;;;;;;;1.3;0.8;;;;;;;13.81;69.76074;942.8519;;;;
2021/06/03 03:55:49;;;;;;;3.5;1.4;;;;;;;13.75;70.11914;942.9044;;;;
2021/06/03 03:58:16;;;;;;;2;1.1;;;;;;;13.64;70.53809;942.9063;;;;
2021/06/03 04:02:34;;;;;;;6.6;1.4;;;;;;;13.61;70.89063;942.921;;;;
2021/06/03 04:04:59;;;;;;;1.2;0.8;;;;;;;13.58;71.02441;942.9208;;;;
2021/06/03 04:07:25;;;;;;;1.6;1.2;;;;;;;13.59;71.13867;942.9138;;;;
2021/06/03 04:09:50;;;;;;;2.6;1.5;;;;;;;13.64;71.37793;942.8727;;;;
2021/06/03 04:12:17;;;;;;;1.9;1;;;;;;;13.76;71.09766;942.7435;;;;
2021/06/03 04:14:42;;;;;;;2.6;1.1;;;;;;;13.82;70.86621;942.8186;;;;
2021/06/03 04:17:09;;;;;;;1.5;0.9;;;;;;;13.86;70.6543;942.7915;;;;
2021/06/03 04:19:34;;;;;;;4.4;1;;;;;;;13.92;70.62988;942.8638;;;;
2021/06/03 04:22:01;;;;;;;3.4;1.4;;;;;;;13.85;70.80176;942.717;;;;
2021/06/03 04:24:26;;;;;;;0.9;0.7;;;;;;;13.88;70.89844;942.8636;;;;
2021/06/03 04:26:54;;;;;;;0.9;0.8;;;;;;;13.93;71.14941;942.8742;;;;
2021/06/03 04:29:19;;;;;;;2.2;1.2;;;;;;;13.93;71.08008;942.8974;;;;
2021/06/03 04:31:46;;;;;;;1.6;1.3;;;;;;;13.92;70.56055;942.8822;;;;
2021/06/03 04:34:22;;;;;;;0.9;0.7;;;;;;;13.95;70.59961;942.9111;;;;
2021/06/03 04:36:41;;;;;;;1.5;1.1;;;;;;;14.07;70.35547;942.9519;;;;
2021/06/03 04:39:06;;;;;;;2.4;1.3;;;;;;;14.02;70.91016;942.9549;;;;
2021/06/03 04:41:32;;;;;;;1.6;1.3;;;;;;;14.08;70.67871;943.0256;;;;
2021/06/03 04:43:57;;;;;;;1.3;1.2;;;;;;;14.18;70.51074;943.0316;;;;
2021/06/03 04:46:24;;;;;;;3.9;1.6;;;;;;;14.25;70.03906;943.0329;;;;
2021/06/03 04:48:49;;;;;;;2.6;1.7;;;;;;;14.43;70.14844;943.0617;;;;
2021/06/03 04:54:52;;;;;;;2.4;1.5;;;;;;;14.67;68.9082;943.1004;;;;
2021/06/03 04:57:19;;;;;;;2.6;1.6;;;;;;;14.4;69.30176;943.0909;;;;
2021/06/03 04:59:44;;;;;;;2.1;1.6;;;;;;;14.45;69.47168;943.1678;;;;
2021/06/03 05:02:09;;;;;;;5.3;2;;;;;;;14.83;70.85645;943.1522;;;;
2021/06/03 05:04:34;;;;;;;1.3;1;;;;;;;16.12;64.38184;943.133;;;;
2021/06/03 05:06:59;;;;;;;1.2;1.1;;;;;;;17.54;58.52344;943.1658;;;;
2021/06/03 05:09:25;;;;;;;1.3;0.7;;;;;;;19.03;54.47266;943.1174;;;;
2021/06/03 05:11:50;;;;;;;2.1;0.9;;;;;;;19.57;52.0918;943.1433;;;;
2021/06/03 05:14:15;;;;;;;0.7;0.6;;;;;;;20.55;48.72559;943.1537;;;;
2021/06/03 05:16:40;;;;;;;0.7;0.7;;;;;;;20.18;49.47852;943.1911;;;;
2021/06/03 05:19:06;;;;;;;1;0.9;;;;;;;19.57;51.19434;943.2322;;;;
2021/06/03 05:21:31;;;;;;;0.6;0.5;;;;;;;20.97;49.43848;943.3481;;;;
2021/06/03 05:23:56;;;;;;;1;0.8;;;;;;;22.16;47.7998;943.3552;;;;
2021/06/03 05:26:27;;;;;;;0.6;0.6;;;;;;;22.85;43.87207;943.2864;;;;
2021/06/03 05:28:54;;;;;;;0.4;0.4;;;;;;;23.12;42.56836;943.2672;;;;
2021/06/03 05:31:19;;;;;;;0.4;0.4;;;;;;;23.04;42.4209;943.3014;;;;
2021/06/03 05:33:46;;;;;;;0.7;0.5;;;;;;;22.59;45.10156;943.2964;;;;
2021/06/03 05:36:11;;;;;;;0.6;0.4;;;;;;;22.97;42.50781;943.3219;;;;
2021/06/03 05:38:38;;;;;;;0.5;0.3;;;;;;;23.73;40.82715;943.2698;;;;
2021/06/03 05:41:03;;;;;;;0.6;0.4;;;;;;;24.84;39.51367;943.3113;;;;
2021/06/03 05:43:30;;;;;;;0.6;0.5;;;;;;;25.43;37.90137;943.3694;;;;
2021/06/03 05:45:56;;;;;;;3.1;0.5;;;;;;;25.13;37.94629;943.3707;;;;
2021/06/03 05:48:23;;;;;;;0.4;0.4;;;;;;;25.08;38.67383;943.4227;;;;
2021/06/03 05:50:48;;;;;;;0.3;0.3;;;;;;;24.35;41.33203;943.3822;;;;
2021/06/03 05:53:15;;;;;;;0.5;0.4;;;;;;;24.02;42.11426;943.4449;;;;
2021/06/03 05:55:40;;;;;;;1.1;1;;;;;;;24.22;40.27148;943.3878;;;;
2021/06/03 05:58:07;;;;;;;0.8;0.7;;;;;;;24.44;39.14844;943.4787;;;;
2021/06/03 06:00:33;;;;;;;0.3;0.3;;;;;;;24.29;38.56934;943.4534;;;;
2021/06/03 06:03:01;;;;;;;2.1;1.1;;;;;;;24.02;39.46484;943.5044;;;;
2021/06/03 06:07:49;;;;;;;0.5;0.5;;;;;;;24.5;38.31641;943.4797;;;;
2021/06/03 06:10:17;;;;;;;1;0.4;;;;;;;24.74;39.9541;943.5306;;;;
2021/06/03 06:12:42;;;;;;;0.5;0.4;;;;;;;25.06;39.23828;943.5733;;;;
2021/06/03 06:15:10;;;;;;;2;1.4;;;;;;;25.6;37.90332;943.6063;;;;
2021/06/03 06:17:37;;;;;;;1.9;0.9;;;;;;;25.38;40.14063;943.5923;;;;
2021/06/03 06:20:02;;;;;;;0.7;0.6;;;;;;;24.46;38.25488;943.5796;;;;
2021/06/03 06:22:32;;;;;;;0.4;0.4;;;;;;;24.66;40.21777;943.6295;;;;
2021/06/03 06:24:58;;;;;;;1.2;0.6;;;;;;;25.32;38.57617;943.6027;;;;
2021/06/03 06:27:22;;;;;;;0.7;0.4;;;;;;;27.19;36.07031;943.615;;;;
2021/06/03 06:29:47;;;;;;;0.9;0.7;;;;;;;28.46;34.04395;943.6262;;;;
2021/06/03 06:32:12;;;;;;;1.1;0.9;;;;;;;29.8;30.99609;943.6501;;;;
2021/06/03 06:34:37;;;;;;;0.9;0.8;;;;;;;31.26;28.95508;943.6209;;;;
2021/06/03 06:37:02;;;;;;;0.5;0.3;;;;;;;31.66;28.05859;943.5903;;;;
2021/06/03 06:39:27;;;;;;;2.6;1.6;;;;;;;32.52;26.6709;943.5691;;;;
2021/06/03 06:41:52;;;;;;;1.8;1.3;;;;;;;31.76;27.45313;943.587;;;;
2021/06/03 06:44:20;;;;;;;0.6;0.6;;;;;;;33.33;25.64844;943.4642;;;;
2021/06/03 06:46:45;;;;;;;0.7;0.6;;;;;;;34.35;24.17676;943.5366;;;;
2021/06/03 06:49:11;;;;;;;1.5;1.2;;;;;;;35.4;22.86719;943.5357;;;;
2021/06/03 06:51:35;;;;;;;0.9;0.5;;;;;;;35.51;22.42676;943.5814;;;;
2021/06/03 06:54:03;;;;;;;0.5;0.5;;;;;;;36.45;21.28711;943.5374;;;;
2021/06/03 06:56:28;;;;;;;1.4;0.7;;;;;;;35.56;22.01855;943.5223;;;;
2021/06/03 06:58:54;;;;;;;0.7;0.7;;;;;;;35.59;22.3457;943.5023;;;;
2021/06/03 07:01:19;;;;;;;3;1.5;;;;;;;35.76;22.37891;943.4995;;;;
2021/06/03 07:03:44;;;;;;;4.1;0.7;;;;;;;35.99;21.72461;943.4986;;;;
2021/06/03 07:06:09;;;;;;;0.6;0.4;;;;;;;37.13;20.34863;943.4593;;;;
2021/06/03 07:08:36;;;;;;;0.6;0.5;;;;;;;36.12;21.10156;943.4917;;;;
2021/06/03 07:11:01;;;;;;;1.9;1.5;;;;;;;36.51;21.42285;943.4642;;;;
2021/06/03 07:13:28;;;;;;;0.9;0.7;;;;;;;37.61;20.83105;943.4586;;;;
2021/06/03 07:15:53;;;;;;;0.4;0.4;;;;;;;37.49;19.85547;943.4285;;;;
2021/06/03 07:18:21;;;;;;;17.4;8.2;;;;;;;38.32;19.56348;943.426;;;;
2021/06/03 07:20:45;;;;;;;0.9;0.4;;;;;;;37.42;19.17285;943.4268;;;;
2021/06/03 07:23:10;;;;;;;0.5;0.3;;;;;;;36.53;20.06836;943.3745;;;;
2021/06/03 07:25:35;;;;;;;0.3;0.3;;;;;;;35.15;20.97363;943.3972;;;;
2021/06/03 07:28:01;;;;;;;0.5;0.4;;;;;;;36.58;20.80859;943.3364;;;;
2021/06/03 07:30:26;;;;;;;0.8;0.3;;;;;;;37.13;19.7666;943.3175;;;;
2021/06/03 07:32:53;;;;;;;3;0.4;;;;;;;38;20.3623;943.2978;;;;
2021/06/03 07:35:19;;;;;;;0.3;0.2;;;;;;;37.9;19.70313;943.3131;;;;
2021/06/03 07:37:45;;;;;;;5;2.8;;;;;;;38.75;18.85156;943.3148;;;;
2021/06/03 07:40:09;;;;;;;15.5;7.5;;;;;;;39.79;17.74902;943.3258;;;;
2021/06/03 07:42:35;;;;;;;0.6;0.3;;;;;;;40.42;16.49023;943.3167;;;;
2021/06/03 07:45:00;;;;;;;0.5;0.4;;;;;;;40.72;16.24512;943.2846;;;;
2021/06/03 07:47:26;;;;;;;0.9;0.4;;;;;;;39.6;17.7041;943.2988;;;;
2021/06/03 07:49:51;;;;;;;0.3;0.3;;;;;;;39.65;17.19434;943.2715;;;;
2021/06/03 07:52:19;;;;;;;0.4;0.3;;;;;;;39.29;17.22949;943.211;;;;
2021/06/03 07:54:43;;;;;;;0.2;0.2;;;;;;;39.85;16.73926;943.177;;;;
2021/06/03 07:57:09;;;;;;;0.5;0.4;;;;;;;39.7;17.41602;943.178;;;;
2021/06/03 07:59:34;;;;;;;0.6;0.3;;;;;;;40.45;16.78516;943.177;;;;
2021/06/03 08:02:01;;;;;;;0.2;0.2;;;;;;;39.73;16.49023;943.0798;;;;
2021/06/03 08:04:26;;;;;;;0.2;0.2;;;;;;;39.12;17.89258;943.084;;;;
2021/06/03 08:06:51;;;;;;;0.6;0.6;;;;;;;40.32;17.40234;943.1052;;;;
2021/06/03 08:09:16;;;;;;;0.3;0.3;;;;;;;40.26;16.91211;943.0885;;;;
2021/06/03 08:11:44;;;;;;;1.2;0.6;;;;;;;41.26;16.01953;943.0008;;;;
2021/06/03 08:14:09;;;;;;;0.3;0.3;;;;;;;39.82;17.7373;943.0075;;;;
2021/06/03 08:16:34;;;;;;;0.7;0.4;;;;;;;38.51;19.20605;942.9864;;;;
2021/06/03 08:19:02;;;;;;;0.3;0.3;;;;;;;39.19;19.78223;942.9743;;;;
2021/06/03 08:21:27;;;;;;;0.2;0.2;;;;;;;39.72;19.29395;942.9358;;;;
2021/06/03 08:23:54;;;;;;;0.3;0.3;;;;;;;39.32;20.89648;942.9295;;;;
2021/06/03 08:26:19;;;;;;;0.2;0.2;;;;;;;40.12;18.0293;942.8522;;;;
2021/06/03 08:28:44;;;;;;;1;0.2;;;;;;;40.18;17.34863;942.8533;;;;
2021/06/03 08:31:10;;;;;;;1.2;0.4;;;;;;;40.82;17.50684;942.8579;;;;
2021/06/03 08:33:35;;;;;;;0.6;0.3;;;;;;;38.95;21.69531;942.8528;;;;
2021/06/03 08:36:00;;;;;;;0.8;0.6;;;;;;;37.87;20.8916;942.838;;;;
2021/06/03 08:38:28;;;;;;;0.7;0.4;;;;;;;35.36;24.70117;942.808;;;;
2021/06/03 08:40:56;;;;;;;0.3;0.3;;;;;;;36.43;23.40332;942.8247;;;;
2021/06/03 08:43:18;;;;;;;0.4;0.3;;;;;;;36.01;21.93066;942.7455;;;;
2021/06/03 08:45:44;;;;;;;1;0.5;;;;;;;37.34;21.2793;942.793;;;;
2021/06/03 08:48:09;;;;;;;3.1;0.3;;;;;;;38.35;20.66992;942.8095;;;;
2021/06/03 08:50:35;;;;;;;0.4;0.4;;;;;;;40.13;18.10352;942.8205;;;;
2021/06/03 08:53:00;;;;;;;0.4;0.3;;;;;;;39.42;19.40234;942.8352;;;;
2021/06/03 08:57:53;;;;;;;0.3;0.3;;;;;;;38.56;21.49414;942.8134;;;;
2021/06/03 09:00:18;;;;;;;0.4;0.3;;;;;;;40.13;18.79883;942.8038;;;;
2021/06/03 09:02:43;;;;;;;0.6;0.4;;;;;;;39.17;20.1709;942.8351;;;;
2021/06/03 09:05:09;;;;;;;0.5;0.3;;;;;;;37.43;21.66016;942.7731;;;;
2021/06/03 09:07:36;;;;;;;0.9;0.3;;;;;;;37.14;22.62793;942.7922;;;;
2021/06/03 09:10:00;;;;;;;1;0.5;;;;;;;38.14;21.02539;942.8401;;;;
2021/06/03 09:12:28;;;;;;;1.2;0.4;;;;;;;38.27;21.17676;942.7847;;;;
2021/06/03 09:14:53;;;;;;;0.3;0.3;;;;;;;38.33;20.41406;942.8235;;;;
2021/06/03 09:17:18;;;;;;;0.4;0.3;;;;;;;36.8;23.84668;942.7866;;;;
2021/06/03 09:19:45;;;;;;;0.3;0.3;;;;;;;34.97;25.16211;942.755;;;;
2021/06/03 09:22:10;;;;;;;0.9;0.4;;;;;;;36.16;24.04297;942.6876;;;;
2021/06/03 09:24:38;;;;;;;0.6;0.3;;;;;;;36.06;24.09766;942.7317;;;;
2021/06/03 09:27:05;;;;;;;1.4;0.3;;;;;;;37.13;22.12988;942.72;;;;
2021/06/03 09:29:31;;;;;;;0.7;0.5;;;;;;;37.61;21.72949;942.7558;;;;
2021/06/03 09:31:57;;;;;;;0.3;0.3;;;;;;;37.4;21.76758;942.6558;;;;
2021/06/03 09:34:25;;;;;;;0.9;0.5;;;;;;;36.54;24.11133;942.6378;;;;
2021/06/03 09:36:59;;;;;;;0.4;0.3;;;;;;;34.26;26.6416;942.6834;;;;
2021/06/03 09:39:18;;;;;;;0.8;0.5;;;;;;;33.46;27.06348;942.6292;;;;
2021/06/03 09:41:43;;;;;;;0.4;0.3;;;;;;;34.68;25.82129;942.616;;;;
2021/06/03 09:44:08;;;;;;;0.2;0.2;;;;;;;35.36;24.51953;942.5986;;;;
2021/06/03 09:46:33;;;;;;;0.5;0.4;;;;;;;35.29;25.01172;942.5573;;;;
2021/06/03 09:48:58;;;;;;;0.1;0.1;;;;;;;33.4;28.41797;942.5986;;;;
2021/06/03 09:51:24;;;;;;;0.8;0.5;;;;;;;31.15;32.00977;942.6178;;;;
2021/06/03 09:53:49;;;;;;;0.3;0.2;;;;;;;31.05;31.7627;942.617;;;;
2021/06/03 09:56:14;;;;;;;1.3;0.8;;;;;;;30.69;32.9209;942.5211;;;;
2021/06/03 09:58:40;;;;;;;0.6;0.5;;;;;;;30.86;32.62305;942.5938;;;;
2021/06/03 10:01:05;;;;;;;1.3;0.4;;;;;;;30.38;34.74902;942.5496;;;;
2021/06/03 10:03:30;;;;;;;0.9;0.6;;;;;;;30.5;32.44238;942.5322;;;;
2021/06/03 10:05:55;;;;;;;0.5;0.3;;;;;;;30;34.85156;942.5309;;;;
2021/06/03 10:08:22;;;;;;;0.3;0.3;;;;;;;29.66;34.99219;942.5467;;;;
2021/06/03 10:10:47;;;;;;;0.6;0.4;;;;;;;29.42;35.24707;942.5386;;;;
2021/06/03 10:13:13;;;;;;;1.2;0.5;;;;;;;28.99;38.29883;942.5863;;;;
2021/06/03 10:15:38;;;;;;;0.4;0.4;;;;;;;28.42;37.8916;942.5262;;;;
2021/06/03 10:18:05;;;;;;;2.8;0.8;;;;;;;27.61;39.90039;942.5075;;;;
2021/06/03 10:20:30;;;;;;;1.1;0.6;;;;;;;27.57;40.13574;942.4726;;;;
2021/06/03 10:22:56;;;;;;;0.9;0.7;;;;;;;27.76;38.91797;942.4724;;;;
2021/06/03 10:25:21;;;;;;;0.7;0.6;;;;;;;27.36;40.54395;942.4423;;;;
2021/06/03 10:27:47;;;;;;;0.6;0.6;;;;;;;27.18;39.74512;942.4769;;;;
2021/06/03 10:30:12;;;;;;;0.4;0.3;;;;;;;26.81;40.28125;942.416;;;;
2021/06/03 10:32:39;;;;;;;0.8;0.5;;;;;;;26.48;42.83203;942.459;;;;
2021/06/03 10:35:04;;;;;;;0.4;0.4;;;;;;;26.69;41.13379;942.5069;;;;
2021/06/03 10:37:29;;;;;;;1.4;1;;;;;;;26.97;40.85156;942.4712;;;;
2021/06/03 10:39:55;;;;;;;0.6;0.4;;;;;;;26.75;41.93359;942.473;;;;
2021/06/03 10:42:20;;;;;;;0.7;0.3;;;;;;;27.2;40.83691;942.4713;;;;
2021/06/03 10:44:45;;;;;;;0.7;0.6;;;;;;;27.75;39.36816;942.5425;;;;
2021/06/03 10:47:10;;;;;;;0.6;0.4;;;;;;;28;37.85742;942.4889;;;;
2021/06/03 10:49:35;;;;;;;0.2;0.2;;;;;;;28.08;38.66016;942.4937;;;;
2021/06/03 10:52:07;;;;;;;0.3;0.3;;;;;;;27.79;39.41895;942.5471;;;;
2021/06/03 10:54:27;;;;;;;0.2;0.2;;;;;;;27.66;38.69434;942.552;;;;
2021/06/03 10:56:54;;;;;;;1.5;0.7;;;;;;;27.78;39.21582;942.501;;;;
2021/06/03 10:59:19;;;;;;;1.2;0.5;;;;;;;27.58;38.49805;942.5553;;;;
2021/06/03 11:01:45;;;;;;;0.5;0.4;;;;;;;27.46;40.50488;942.5419;;;;
2021/06/03 11:04:11;;;;;;;0.5;0.5;;;;;;;27.47;40.41016;942.5381;;;;
2021/06/03 11:06:35;;;;;;;0.4;0.4;;;;;;;27.07;39.85352;942.551;;;;
2021/06/03 11:09:02;;;;;;;0.6;0.6;;;;;;;27.25;38.50586;942.4992;;;;
2021/06/03 11:11:27;;;;;;;0.4;0.3;;;;;;;27.36;38.7041;942.4155;;;;
2021/06/03 11:13:52;;;;;;;0.4;0.4;;;;;;;27.14;40.44043;942.4562;;;;
2021/06/03 11:16:17;;;;;;;0.3;0.2;;;;;;;26.66;40.04199;942.4476;;;;
2021/06/03 11:18:43;;;;;;;0.7;0.5;;;;;;;26.72;40.1543;942.5003;;;;
2021/06/03 11:21:08;;;;;;;0.2;0.2;;;;;;;26.65;40.83594;942.4733;;;;
2021/06/03 11:23:33;;;;;;;0.5;0.4;;;;;;;26.57;42.35449;942.5168;;;;
2021/06/03 11:26:41;;;;;;;1.2;0.4;;;;;;;26.75;40.50098;942.4891;;;;
2021/06/03 11:29:06;;;;;;;0.5;0.4;;;;;;;26.84;40.11719;942.5328;;;;
2021/06/03 11:31:33;;;;;;;0.8;0.4;;;;;;;26.72;41.125;942.5725;;;;
2021/06/03 11:33:58;;;;;;;2.1;0.7;;;;;;;26.7;40.22363;942.5709;;;;
2021/06/03 11:36:23;;;;;;;2.8;0.3;;;;;;;26.6;41.33887;942.6047;;;;
2021/06/03 11:38:48;;;;;;;2;0.6;;;;;;;26.77;40.63281;942.5963;;;;
2021/06/03 11:41:18;;;;;;;1.1;0.4;;;;;;;26.3;42.84961;942.5912;;;;
2021/06/03 11:43:43;;;;;;;0.7;0.5;;;;;;;26.4;42.70605;942.5016;;;;
2021/06/03 11:46:08;;;;;;;0.6;0.4;;;;;;;26.5;42.83398;942.5739;;;;
2021/06/03 11:48:37;;;;;;;2.2;0.6;;;;;;;26.69;42.96973;942.5027;;;;
2021/06/03 11:51:02;;;;;;;0.4;0.4;;;;;;;26.75;42.13574;942.4941;;;;
2021/06/03 11:53:27;;;;;;;0.2;0.2;;;;;;;26.69;40.79102;942.5092;;;;
2021/06/03 11:55:57;;;;;;;0.3;0.3;;;;;;;26.78;42.65918;942.4921;;;;
2021/06/03 11:58:23;;;;;;;0.6;0.3;;;;;;;26.68;42.06934;942.4588;;;;
2021/06/03 12:00:48;;;;;;;1.1;0.7;;;;;;;26.55;42.93359;942.454;;;;
2021/06/03 12:03:13;;;;;;;1.6;0.6;;;;;;;26.25;43.25879;942.4655;;;;
2021/06/03 12:05:38;;;;;;;6.5;0.7;;;;;;;26.24;45.41211;942.4398;;;;
2021/06/03 12:08:05;;;;;;;0.5;0.5;;;;;;;26.36;43.1748;942.3908;;;;
2021/06/03 12:10:30;;;;;;;0.8;0.4;;;;;;;26.1;43.87207;942.4178;;;;
2021/06/03 12:12:55;;;;;;;0.7;0.5;;;;;;;26.27;43.99512;942.4001;;;;
2021/06/03 12:15:22;;;;;;;1;0.5;;;;;;;26.49;44.07617;942.4186;;;;
2021/06/03 12:17:47;;;;;;;0.8;0.4;;;;;;;26.16;44.49316;942.4299;;;;
2021/06/03 12:20:13;;;;;;;0.5;0.4;;;;;;;26.53;41.71094;942.4001;;;;
2021/06/03 12:22:38;;;;;;;0.4;0.4;;;;;;;26.67;41.62988;942.4023;;;;
2021/06/03 12:25:04;;;;;;;0.5;0.5;;;;;;;26.62;41.16406;942.3453;;;;
2021/06/03 12:27:29;;;;;;;2.5;0.5;;;;;;;26.46;41.25586;942.3453;;;;
2021/06/03 12:29:54;;;;;;;0.5;0.5;;;;;;;26.69;41.46582;942.3203;;;;
2021/06/03 12:32:19;;;;;;;0.6;0.5;;;;;;;26.78;42.04395;942.3856;;;;
2021/06/03 12:34:44;;;;;;;1.1;0.6;;;;;;;27.05;40.89355;942.2906;;;;
2021/06/03 12:37:10;;;;;;;0.5;0.4;;;;;;;27.39;40.98535;942.2593;;;;
2021/06/03 12:39:35;;;;;;;0.5;0.4;;;;;;;27.12;40.48633;942.2264;;;;
2021/06/03 12:42:00;;;;;;;0.9;0.7;;;;;;;27.13;42.09961;942.226;;;;
2021/06/03 12:44:25;;;;;;;0.5;0.4;;;;;;;27.39;41.0332;942.2472;;;;
2021/06/03 12:46:52;;;;;;;0.4;0.3;;;;;;;27.63;39.0127;942.1841;;;;
2021/06/03 12:49:16;;;;;;;0.4;0.3;;;;;;;27.42;40.13379;942.2286;;;;
2021/06/03 12:51:42;;;;;;;0.5;0.3;;;;;;;27.48;39.96094;942.1875;;;;
2021/06/03 12:54:07;;;;;;;0.3;0.2;;;;;;;27.4;39.5498;942.173;;;;
2021/06/03 12:56:33;;;;;;;0.3;0.3;;;;;;;27.29;41.08301;942.2031;;;;
2021/06/03 12:58:58;;;;;;;1.1;0.7;;;;;;;27.14;40.07324;942.1119;;;;
2021/06/03 13:01:24;;;;;;;0.9;0.6;;;;;;;27.3;40.78613;942.1365;;;;
2021/06/03 13:03:49;;;;;;;0.5;0.4;;;;;;;27.41;41.73535;942.2131;;;;
2021/06/03 13:06:15;;;;;;;2;0.6;;;;;;;27.62;40.05664;942.1895;;;;
2021/06/03 13:08:40;;;;;;;0.6;0.6;;;;;;;27.3;42.06738;942.1944;;;;
2021/06/03 13:11:07;;;;;;;3;0.5;;;;;;;27.66;39.24023;942.0709;;;;
2021/06/03 13:13:33;;;;;;;2.5;0.4;;;;;;;27.82;40.60938;942.1156;;;;
2021/06/03 13:15:58;;;;;;;2;0.4;;;;;;;27.82;41.07227;942.0943;;;;
2021/06/03 13:18:24;;;;;;;0.5;0.4;;;;;;;27.96;39.29102;942.0358;;;;
2021/06/03 13:20:52;;;;;;;1;0.7;;;;;;;27.71;41.27539;942.0463;;;;
2021/06/03 13:23:17;;;;;;;1.1;0.6;;;;;;;27.66;40.45117;941.9802;;;;
2021/06/03 13:25:42;;;;;;;0.6;0.3;;;;;;;27.55;40.78613;941.9359;;;;
2021/06/03 13:28:09;;;;;;;0.4;0.4;;;;;;;27.46;41.7041;941.8725;;;;
2021/06/03 13:30:34;;;;;;;1;0.7;;;;;;;27.47;40.61328;941.8939;;;;
2021/06/03 13:33:02;;;;;;;0.3;0.3;;;;;;;27.35;39.0957;941.9033;;;;
2021/06/03 13:35:27;;;;;;;0.9;0.5;;;;;;;27.59;41.67969;941.887;;;;
2021/06/03 13:37:52;;;;;;;0.9;0.5;;;;;;;27.91;39.69043;941.8579;;;;
2021/06/03 13:40:20;;;;;;;0.5;0.4;;;;;;;28.08;39.78906;941.8269;;;;
2021/06/03 13:42:45;;;;;;;0.2;0.2;;;;;;;27.6;40.66016;941.8312;;;;
2021/06/03 13:45:10;;;;;;;0.7;0.6;;;;;;;27.85;38.9375;941.8622;;;;
2021/06/03 13:47:35;;;;;;;0.3;0.3;;;;;;;27.37;40.42578;941.9023;;;;
2021/06/03 13:50:00;;;;;;;1.8;0.9;;;;;;;27.01;40.70215;941.8996;;;;
2021/06/03 13:52:25;;;;;;;1;0.5;;;;;;;26.98;40.42578;941.8762;;;;
2021/06/03 13:54:51;;;;;;;0.4;0.3;;;;;;;26.65;42.01953;941.8306;;;;
2021/06/03 13:57:16;;;;;;;0.6;0.5;;;;;;;26.35;43.87305;941.8373;;;;
2021/06/03 13:59:41;;;;;;;1.1;0.4;;;;;;;26.65;43.54688;941.7742;;;;
2021/06/03 14:02:06;;;;;;;7.9;2.4;;;;;;;26.66;40.43262;941.9558;;;;
2021/06/03 14:04:33;;;;;;;4.2;1.2;;;;;;;25.23;44.49512;941.9651;;;;
2021/06/03 14:16:37;;;;;;;12.6;6.7;;;;;;;25.45;48.65234;941.6591;;;;
2021/06/03 14:23:57;;;;;;;5;3.2;;;;;;;25.15;44.22754;941.8825;;;;
2021/06/03 14:26:22;;;;;;;23.8;3.9;;;;;;;25.37;43.375;941.8517;;;;
2021/06/03 14:28:48;;;;;;;3;2.5;;;;;;;25.81;43.80859;941.8972;;;;
2021/06/03 14:31:15;;;;;;;5.4;3;;;;;;;25.76;45.37598;941.9319;;;;
2021/06/03 14:33:40;;;;;;;4;2.6;;;;;;;25.61;46.42383;941.9136;;;;
2021/06/03 14:36:05;;;;;;;3.9;2.9;;;;;;;25.36;45.85449;941.9025;;;;
2021/06/03 14:38:31;;;;;;;3.4;2.7;;;;;;;25.12;46.33789;941.8918;;;;
2021/06/03 14:40:56;;;;;;;3.8;2.8;;;;;;;24.86;47.26465;941.9092;;;;
2021/06/03 14:43:22;;;;;;;4.5;2.8;;;;;;;24.65;47.19629;941.8718;;;;
2021/06/03 14:45:47;;;;;;;4.7;3;;;;;;;24.53;46.55859;941.9021;;;;
2021/06/03 14:48:13;;;;;;;4.3;2.7;;;;;;;24.57;47.02246;941.9012;;;;